sensor_id;sensor_type;location;lat;lon;timestamp;P1;durP1;ratioP1;P2;durP2;ratioP2
15151;SDS011;7676;50.900;6.234;2022-10-16T00:03:10;1.10;;;1.00;;
15151;SDS011;7676;50.900;6.234;2022-10-16T00:08:13;3.73;;;1.20;;
15151;SDS011;7676;50.900;6.234;2022-10-16T00:13:15;1.47;;;1.00;;
15151;SDS011;7676;50.900;6.234;2022-10-16T00:18:19;2.43;;;1.07;;
15151;SDS011;7676;50.900;6.234;2022-10-16T00:23:23;1.57;;;0.90;;
15151;SDS011;7676;50.900;6.234;2022-10-16T00:28:26;1.90;;;0.87;;
15151;SDS011;7676;50.900;6.234;2022-10-16T00:33:28;1.33;;;0.90;;
15151;SDS011;7676;50.900;6.234;2022-10-16T00:38:31;1.20;;;0.90;;
15151;SDS011;7676;50.900;6.234;2022-10-16T00:43:44;1.80;;;1.20;;
15151;SDS011;7676;50.900;6.234;2022-10-16T00:48:50;0.70;;;0.60;;
15151;SDS011;7676;50.900;6.234;2022-10-16T00:54:23;0.80;;;0.80;;
15151;SDS011;7676;50.900;6.234;2022-10-16T00:59:37;1.33;;;0.77;;
15151;SDS011;7676;50.900;6.234;2022-10-16T01:04:47;1.57;;;0.80;;
15151;SDS011;7676;50.900;6.234;2022-10-16T01:15:23;1.43;;;0.70;;
15151;SDS011;7676;50.900;6.234;2022-10-16T01:20:45;0.60;;;0.60;;
15151;SDS011;7676;50.900;6.234;2022-10-16T01:31:06;0.87;;;0.60;;
15151;SDS011;7676;50.900;6.234;2022-10-16T01:36:13;2.20;;;0.87;;
15151;SDS011;7676;50.900;6.234;2022-10-16T01:41:22;0.93;;;0.70;;
15151;SDS011;7676;50.900;6.234;2022-10-16T01:46:30;1.90;;;0.70;;
15151;SDS011;7676;50.900;6.234;2022-10-16T01:51:33;0.50;;;0.50;;
15151;SDS011;7676;50.900;6.234;2022-10-16T01:56:37;0.70;;;0.60;;
15151;SDS011;7676;50.900;6.234;2022-10-16T02:01:43;0.93;;;0.50;;
15151;SDS011;7676;50.900;6.234;2022-10-16T02:06:50;0.70;;;0.50;;
15151;SDS011;7676;50.900;6.234;2022-10-16T02:11:54;1.03;;;0.70;;
15151;SDS011;7676;50.900;6.234;2022-10-16T02:17:01;1.27;;;0.70;;
15151;SDS011;7676;50.900;6.234;2022-10-16T02:22:03;0.63;;;0.57;;
15151;SDS011;7676;50.900;6.234;2022-10-16T02:27:10;0.90;;;0.70;;
15151;SDS011;7676;50.900;6.234;2022-10-16T02:32:18;1.23;;;0.70;;
15151;SDS011;7676;50.900;6.234;2022-10-16T02:37:22;0.83;;;0.67;;
15151;SDS011;7676;50.900;6.234;2022-10-16T02:42:33;0.63;;;0.50;;
15151;SDS011;7676;50.900;6.234;2022-10-16T02:47:37;0.70;;;0.50;;
15151;SDS011;7676;50.900;6.234;2022-10-16T02:52:39;1.07;;;0.60;;
15151;SDS011;7676;50.900;6.234;2022-10-16T02:57:42;1.70;;;0.63;;
15151;SDS011;7676;50.900;6.234;2022-10-16T03:02:45;1.03;;;0.60;;
15151;SDS011;7676;50.900;6.234;2022-10-16T03:07:48;0.63;;;0.50;;
15151;SDS011;7676;50.900;6.234;2022-10-16T03:12:50;0.80;;;0.60;;
15151;SDS011;7676;50.900;6.234;2022-10-16T03:17:53;1.00;;;0.67;;
15151;SDS011;7676;50.900;6.234;2022-10-16T03:22:55;1.23;;;0.80;;
15151;SDS011;7676;50.900;6.234;2022-10-16T03:27:58;1.10;;;0.70;;
15151;SDS011;7676;50.900;6.234;2022-10-16T03:33:00;0.90;;;0.70;;
15151;SDS011;7676;50.900;6.234;2022-10-16T03:38:02;0.93;;;0.70;;
15151;SDS011;7676;50.900;6.234;2022-10-16T03:43:04;1.87;;;0.80;;
15151;SDS011;7676;50.900;6.234;2022-10-16T03:48:07;1.53;;;0.90;;
15151;SDS011;7676;50.900;6.234;2022-10-16T03:53:09;0.90;;;0.80;;
15151;SDS011;7676;50.900;6.234;2022-10-16T03:58:12;0.80;;;0.80;;
15151;SDS011;7676;50.900;6.234;2022-10-16T04:03:14;1.27;;;0.70;;
15151;SDS011;7676;50.900;6.234;2022-10-16T04:08:17;0.70;;;0.70;;
15151;SDS011;7676;50.900;6.234;2022-10-16T04:13:20;1.93;;;1.00;;
15151;SDS011;7676;50.900;6.234;2022-10-16T04:18:22;0.97;;;0.77;;
15151;SDS011;7676;50.900;6.234;2022-10-16T04:23:24;1.87;;;0.90;;
15151;SDS011;7676;50.900;6.234;2022-10-16T04:28:27;1.27;;;0.80;;
15151;SDS011;7676;50.900;6.234;2022-10-16T04:33:30;1.63;;;0.90;;
15151;SDS011;7676;50.900;6.234;2022-10-16T04:38:32;0.93;;;0.70;;
15151;SDS011;7676;50.900;6.234;2022-10-16T04:43:35;1.00;;;0.80;;
15151;SDS011;7676;50.900;6.234;2022-10-16T04:48:37;1.03;;;0.70;;
15151;SDS011;7676;50.900;6.234;2022-10-16T04:53:39;1.70;;;1.00;;
15151;SDS011;7676;50.900;6.234;2022-10-16T04:58:42;1.00;;;0.87;;
15151;SDS011;7676;50.900;6.234;2022-10-16T05:03:44;1.37;;;0.90;;
15151;SDS011;7676;50.900;6.234;2022-10-16T05:08:47;0.87;;;0.73;;
15151;SDS011;7676;50.900;6.234;2022-10-16T05:13:49;1.17;;;0.97;;
15151;SDS011;7676;50.900;6.234;2022-10-16T05:18:56;1.20;;;1.07;;
15151;SDS011;7676;50.900;6.234;2022-10-16T05:24:19;2.10;;;0.90;;
15151;SDS011;7676;50.900;6.234;2022-10-16T05:29:21;1.30;;;0.73;;
15151;SDS011;7676;50.900;6.234;2022-10-16T05:34:24;1.67;;;1.00;;
15151;SDS011;7676;50.900;6.234;2022-10-16T05:39:27;1.47;;;0.90;;
15151;SDS011;7676;50.900;6.234;2022-10-16T05:44:29;1.10;;;0.90;;
15151;SDS011;7676;50.900;6.234;2022-10-16T05:49:31;2.80;;;1.00;;
15151;SDS011;7676;50.900;6.234;2022-10-16T05:54:40;1.10;;;1.00;;
15151;SDS011;7676;50.900;6.234;2022-10-16T05:59:42;1.00;;;0.90;;
15151;SDS011;7676;50.900;6.234;2022-10-16T06:04:44;1.87;;;1.00;;
15151;SDS011;7676;50.900;6.234;2022-10-16T06:09:53;4.60;;;1.07;;
15151;SDS011;7676;50.900;6.234;2022-10-16T06:14:55;1.20;;;1.00;;
15151;SDS011;7676;50.900;6.234;2022-10-16T06:19:58;2.03;;;1.40;;
15151;SDS011;7676;50.900;6.234;2022-10-16T06:25:00;1.70;;;1.30;;
15151;SDS011;7676;50.900;6.234;2022-10-16T06:30:02;1.57;;;1.47;;
15151;SDS011;7676;50.900;6.234;2022-10-16T06:35:05;1.07;;;0.90;;
15151;SDS011;7676;50.900;6.234;2022-10-16T06:40:08;2.13;;;1.20;;
15151;SDS011;7676;50.900;6.234;2022-10-16T06:45:10;1.23;;;1.13;;
15151;SDS011;7676;50.900;6.234;2022-10-16T06:50:13;1.20;;;1.10;;
15151;SDS011;7676;50.900;6.234;2022-10-16T06:55:15;2.10;;;1.13;;
15151;SDS011;7676;50.900;6.234;2022-10-16T07:00:18;1.50;;;1.10;;
15151;SDS011;7676;50.900;6.234;2022-10-16T07:05:21;1.93;;;1.13;;
15151;SDS011;7676;50.900;6.234;2022-10-16T07:10:23;1.47;;;1.20;;
15151;SDS011;7676;50.900;6.234;2022-10-16T07:15:26;1.40;;;1.30;;
15151;SDS011;7676;50.900;6.234;2022-10-16T07:20:29;1.70;;;1.20;;
15151;SDS011;7676;50.900;6.234;2022-10-16T07:25:32;2.67;;;1.13;;
15151;SDS011;7676;50.900;6.234;2022-10-16T07:30:35;3.73;;;2.67;;
15151;SDS011;7676;50.900;6.234;2022-10-16T07:35:46;4.33;;;3.43;;
15151;SDS011;7676;50.900;6.234;2022-10-16T07:41:00;3.60;;;3.07;;
15151;SDS011;7676;50.900;6.234;2022-10-16T07:46:04;4.37;;;2.87;;
15151;SDS011;7676;50.900;6.234;2022-10-16T07:51:08;3.57;;;2.23;;
15151;SDS011;7676;50.900;6.234;2022-10-16T07:56:11;3.87;;;2.43;;
15151;SDS011;7676;50.900;6.234;2022-10-16T08:01:15;3.20;;;1.90;;
15151;SDS011;7676;50.900;6.234;2022-10-16T08:06:18;2.57;;;1.90;;
15151;SDS011;7676;50.900;6.234;2022-10-16T08:11:28;2.43;;;1.40;;
15151;SDS011;7676;50.900;6.234;2022-10-16T08:16:31;1.60;;;1.13;;
15151;SDS011;7676;50.900;6.234;2022-10-16T08:21:33;2.00;;;1.00;;
15151;SDS011;7676;50.900;6.234;2022-10-16T08:26:35;3.73;;;2.70;;
15151;SDS011;7676;50.900;6.234;2022-10-16T08:31:38;1.53;;;1.20;;
15151;SDS011;7676;50.900;6.234;2022-10-16T08:36:40;1.80;;;1.10;;
15151;SDS011;7676;50.900;6.234;2022-10-16T08:52:15;1.77;;;1.13;;
15151;SDS011;7676;50.900;6.234;2022-10-16T08:57:19;2.60;;;1.07;;
15151;SDS011;7676;50.900;6.234;2022-10-16T09:02:37;1.20;;;0.80;;
15151;SDS011;7676;50.900;6.234;2022-10-16T09:07:49;1.60;;;0.90;;
15151;SDS011;7676;50.900;6.234;2022-10-16T09:18:48;1.00;;;0.70;;
15151;SDS011;7676;50.900;6.234;2022-10-16T09:23:58;0.87;;;0.60;;
15151;SDS011;7676;50.900;6.234;2022-10-16T09:29:14;1.90;;;0.70;;
15151;SDS011;7676;50.900;6.234;2022-10-16T09:39:30;1.23;;;0.80;;
15151;SDS011;7676;50.900;6.234;2022-10-16T09:44:49;0.90;;;0.77;;
15151;SDS011;7676;50.900;6.234;2022-10-16T09:49:54;1.07;;;0.70;;
15151;SDS011;7676;50.900;6.234;2022-10-16T09:55:14;1.43;;;0.60;;
15151;SDS011;7676;50.900;6.234;2022-10-16T10:00:18;1.57;;;0.80;;
15151;SDS011;7676;50.900;6.234;2022-10-16T10:05:25;1.23;;;0.70;;
15151;SDS011;7676;50.900;6.234;2022-10-16T10:10:30;1.40;;;0.60;;
15151;SDS011;7676;50.900;6.234;2022-10-16T10:15:35;2.10;;;0.80;;
15151;SDS011;7676;50.900;6.234;2022-10-16T10:20:43;1.87;;;0.83;;
15151;SDS011;7676;50.900;6.234;2022-10-16T10:26:10;0.90;;;0.57;;
15151;SDS011;7676;50.900;6.234;2022-10-16T10:31:33;1.13;;;0.60;;
15151;SDS011;7676;50.900;6.234;2022-10-16T10:37:00;2.00;;;0.80;;
15151;SDS011;7676;50.900;6.234;2022-10-16T10:48:02;2.00;;;0.60;;
15151;SDS011;7676;50.900;6.234;2022-10-16T11:09:35;1.30;;;0.60;;
15151;SDS011;7676;50.900;6.234;2022-10-16T11:14:46;2.60;;;0.80;;
15151;SDS011;7676;50.900;6.234;2022-10-16T11:20:25;1.70;;;0.70;;
15151;SDS011;7676;50.900;6.234;2022-10-16T11:25:32;1.53;;;0.50;;
15151;SDS011;7676;50.900;6.234;2022-10-16T11:30:47;1.10;;;0.60;;
15151;SDS011;7676;50.900;6.234;2022-10-16T11:35:56;1.17;;;0.80;;
15151;SDS011;7676;50.900;6.234;2022-10-16T11:41:13;1.03;;;0.60;;
15151;SDS011;7676;50.900;6.234;2022-10-16T11:46:25;1.93;;;0.70;;
15151;SDS011;7676;50.900;6.234;2022-10-16T11:56:38;1.50;;;0.80;;
15151;SDS011;7676;50.900;6.234;2022-10-16T12:01:46;1.90;;;0.50;;
15151;SDS011;7676;50.900;6.234;2022-10-16T12:07:03;0.53;;;0.40;;
15151;SDS011;7676;50.900;6.234;2022-10-16T12:17:38;1.03;;;0.40;;
15151;SDS011;7676;50.900;6.234;2022-10-16T12:23:16;0.97;;;0.43;;
15151;SDS011;7676;50.900;6.234;2022-10-16T12:28:22;0.60;;;0.40;;
15151;SDS011;7676;50.900;6.234;2022-10-16T12:33:30;1.00;;;0.40;;
15151;SDS011;7676;50.900;6.234;2022-10-16T12:38:45;0.83;;;0.40;;
15151;SDS011;7676;50.900;6.234;2022-10-16T12:43:50;1.03;;;0.50;;
15151;SDS011;7676;50.900;6.234;2022-10-16T12:48:52;0.73;;;0.30;;
15151;SDS011;7676;50.900;6.234;2022-10-16T13:10:28;0.90;;;0.50;;
15151;SDS011;7676;50.900;6.234;2022-10-16T13:32:07;0.73;;;0.53;;
15151;SDS011;7676;50.900;6.234;2022-10-16T13:37:31;1.10;;;0.40;;
15151;SDS011;7676;50.900;6.234;2022-10-16T13:42:34;0.73;;;0.50;;
15151;SDS011;7676;50.900;6.234;2022-10-16T13:47:36;0.60;;;0.50;;
15151;SDS011;7676;50.900;6.234;2022-10-16T13:52:39;1.37;;;0.60;;
15151;SDS011;7676;50.900;6.234;2022-10-16T13:57:41;0.90;;;0.50;;
15151;SDS011;7676;50.900;6.234;2022-10-16T14:02:44;1.03;;;0.50;;
15151;SDS011;7676;50.900;6.234;2022-10-16T14:07:52;1.77;;;0.60;;
15151;SDS011;7676;50.900;6.234;2022-10-16T14:12:57;0.73;;;0.40;;
15151;SDS011;7676;50.900;6.234;2022-10-16T14:18:02;0.67;;;0.50;;
15151;SDS011;7676;50.900;6.234;2022-10-16T14:28:31;1.07;;;0.60;;
15151;SDS011;7676;50.900;6.234;2022-10-16T14:33:34;1.23;;;0.50;;
15151;SDS011;7676;50.900;6.234;2022-10-16T14:38:38;0.83;;;0.50;;
15151;SDS011;7676;50.900;6.234;2022-10-16T14:43:42;0.73;;;0.50;;
15151;SDS011;7676;50.900;6.234;2022-10-16T14:48:56;0.87;;;0.50;;
15151;SDS011;7676;50.900;6.234;2022-10-16T14:54:04;2.07;;;0.60;;
15151;SDS011;7676;50.900;6.234;2022-10-16T14:59:07;1.00;;;0.60;;
15151;SDS011;7676;50.900;6.234;2022-10-16T15:04:33;1.50;;;0.70;;
15151;SDS011;7676;50.900;6.234;2022-10-16T15:09:36;1.50;;;0.80;;
15151;SDS011;7676;50.900;6.234;2022-10-16T15:14:38;1.80;;;0.80;;
15151;SDS011;7676;50.900;6.234;2022-10-16T15:19:41;1.00;;;0.70;;
15151;SDS011;7676;50.900;6.234;2022-10-16T15:24:43;1.60;;;0.90;;
15151;SDS011;7676;50.900;6.234;2022-10-16T15:29:46;1.13;;;0.80;;
15151;SDS011;7676;50.900;6.234;2022-10-16T15:34:48;1.70;;;0.90;;
15151;SDS011;7676;50.900;6.234;2022-10-16T15:39:50;2.60;;;1.00;;
15151;SDS011;7676;50.900;6.234;2022-10-16T15:44:53;2.23;;;0.93;;
15151;SDS011;7676;50.900;6.234;2022-10-16T15:49:55;4.03;;;1.00;;
15151;SDS011;7676;50.900;6.234;2022-10-16T15:54:58;4.07;;;1.37;;
15151;SDS011;7676;50.900;6.234;2022-10-16T16:00:01;2.67;;;0.90;;
15151;SDS011;7676;50.900;6.234;2022-10-16T16:05:12;1.70;;;0.80;;
15151;SDS011;7676;50.900;6.234;2022-10-16T16:10:15;5.53;;;2.47;;
15151;SDS011;7676;50.900;6.234;2022-10-16T16:15:19;3.63;;;1.10;;
15151;SDS011;7676;50.900;6.234;2022-10-16T16:20:22;3.63;;;1.07;;
15151;SDS011;7676;50.900;6.234;2022-10-16T16:25:25;2.57;;;0.80;;
15151;SDS011;7676;50.900;6.234;2022-10-16T16:30:28;3.87;;;1.00;;
15151;SDS011;7676;50.900;6.234;2022-10-16T16:35:30;3.70;;;1.33;;
15151;SDS011;7676;50.900;6.234;2022-10-16T16:40:33;2.73;;;1.03;;
15151;SDS011;7676;50.900;6.234;2022-10-16T16:45:35;3.77;;;1.10;;
15151;SDS011;7676;50.900;6.234;2022-10-16T16:50:37;4.67;;;1.10;;
15151;SDS011;7676;50.900;6.234;2022-10-16T16:55:40;3.23;;;1.10;;
15151;SDS011;7676;50.900;6.234;2022-10-16T17:00:46;4.73;;;1.07;;
15151;SDS011;7676;50.900;6.234;2022-10-16T17:06:00;2.57;;;1.20;;
15151;SDS011;7676;50.900;6.234;2022-10-16T17:11:05;2.60;;;1.00;;
15151;SDS011;7676;50.900;6.234;2022-10-16T17:16:08;3.73;;;1.17;;
15151;SDS011;7676;50.900;6.234;2022-10-16T17:21:11;4.33;;;1.17;;
15151;SDS011;7676;50.900;6.234;2022-10-16T17:26:15;3.60;;;1.23;;
15151;SDS011;7676;50.900;6.234;2022-10-16T17:31:23;3.30;;;1.10;;
15151;SDS011;7676;50.900;6.234;2022-10-16T17:36:27;1.77;;;1.00;;
15151;SDS011;7676;50.900;6.234;2022-10-16T17:41:31;2.13;;;0.80;;
15151;SDS011;7676;50.900;6.234;2022-10-16T17:46:34;1.47;;;0.70;;
15151;SDS011;7676;50.900;6.234;2022-10-16T17:51:42;1.53;;;1.17;;
15151;SDS011;7676;50.900;6.234;2022-10-16T17:56:45;4.00;;;0.90;;
15151;SDS011;7676;50.900;6.234;2022-10-16T18:01:48;1.77;;;0.87;;
15151;SDS011;7676;50.900;6.234;2022-10-16T18:06:51;2.37;;;0.90;;
15151;SDS011;7676;50.900;6.234;2022-10-16T18:11:54;1.23;;;1.13;;
15151;SDS011;7676;50.900;6.234;2022-10-16T18:17:03;2.33;;;1.23;;
15151;SDS011;7676;50.900;6.234;2022-10-16T18:22:07;2.67;;;1.60;;
15151;SDS011;7676;50.900;6.234;2022-10-16T18:27:09;1.90;;;1.70;;
15151;SDS011;7676;50.900;6.234;2022-10-16T18:32:11;2.73;;;2.20;;
15151;SDS011;7676;50.900;6.234;2022-10-16T18:37:14;2.77;;;2.57;;
15151;SDS011;7676;50.900;6.234;2022-10-16T18:42:17;3.43;;;2.90;;
15151;SDS011;7676;50.900;6.234;2022-10-16T18:47:19;3.07;;;2.80;;
15151;SDS011;7676;50.900;6.234;2022-10-16T18:52:22;5.50;;;5.00;;
15151;SDS011;7676;50.900;6.234;2022-10-16T18:57:28;4.50;;;3.47;;
15151;SDS011;7676;50.900;6.234;2022-10-16T19:02:31;2.30;;;1.40;;
15151;SDS011;7676;50.900;6.234;2022-10-16T19:07:39;2.83;;;1.50;;
15151;SDS011;7676;50.900;6.234;2022-10-16T19:12:44;3.57;;;2.87;;
15151;SDS011;7676;50.900;6.234;2022-10-16T19:17:46;3.23;;;2.50;;
15151;SDS011;7676;50.900;6.234;2022-10-16T19:22:48;2.30;;;1.93;;
15151;SDS011;7676;50.900;6.234;2022-10-16T19:27:59;3.07;;;2.10;;
15151;SDS011;7676;50.900;6.234;2022-10-16T19:33:07;1.60;;;1.47;;
15151;SDS011;7676;50.900;6.234;2022-10-16T19:38:09;1.60;;;1.50;;
15151;SDS011;7676;50.900;6.234;2022-10-16T19:43:12;3.43;;;2.80;;
15151;SDS011;7676;50.900;6.234;2022-10-16T19:48:14;2.63;;;2.13;;
15151;SDS011;7676;50.900;6.234;2022-10-16T19:53:16;3.37;;;2.40;;
15151;SDS011;7676;50.900;6.234;2022-10-16T19:58:19;4.47;;;2.10;;
15151;SDS011;7676;50.900;6.234;2022-10-16T20:03:22;3.53;;;2.27;;
15151;SDS011;7676;50.900;6.234;2022-10-16T20:08:26;2.47;;;2.10;;
15151;SDS011;7676;50.900;6.234;2022-10-16T20:13:29;2.83;;;2.10;;
15151;SDS011;7676;50.900;6.234;2022-10-16T20:18:32;2.13;;;1.93;;
15151;SDS011;7676;50.900;6.234;2022-10-16T20:23:34;2.70;;;2.17;;
15151;SDS011;7676;50.900;6.234;2022-10-16T20:28:37;3.77;;;2.07;;
15151;SDS011;7676;50.900;6.234;2022-10-16T20:33:41;3.13;;;2.13;;
15151;SDS011;7676;50.900;6.234;2022-10-16T20:38:44;3.33;;;2.37;;
15151;SDS011;7676;50.900;6.234;2022-10-16T20:43:48;2.40;;;2.10;;
15151;SDS011;7676;50.900;6.234;2022-10-16T20:48:51;2.50;;;2.30;;
15151;SDS011;7676;50.900;6.234;2022-10-16T20:53:55;3.07;;;2.40;;
15151;SDS011;7676;50.900;6.234;2022-10-16T20:58:59;2.47;;;2.27;;
15151;SDS011;7676;50.900;6.234;2022-10-16T21:04:03;2.47;;;2.10;;
15151;SDS011;7676;50.900;6.234;2022-10-16T21:09:07;2.20;;;2.03;;
15151;SDS011;7676;50.900;6.234;2022-10-16T21:14:10;6.70;;;4.83;;
15151;SDS011;7676;50.900;6.234;2022-10-16T21:19:15;7.10;;;5.40;;
15151;SDS011;7676;50.900;6.234;2022-10-16T21:24:17;2.70;;;2.50;;
15151;SDS011;7676;50.900;6.234;2022-10-16T21:29:20;2.40;;;2.20;;
15151;SDS011;7676;50.900;6.234;2022-10-16T21:34:23;3.33;;;2.50;;
15151;SDS011;7676;50.900;6.234;2022-10-16T21:39:26;6.60;;;5.90;;
15151;SDS011;7676;50.900;6.234;2022-10-16T21:44:29;4.30;;;3.50;;
15151;SDS011;7676;50.900;6.234;2022-10-16T21:49:31;2.63;;;2.43;;
15151;SDS011;7676;50.900;6.234;2022-10-16T21:54:34;3.23;;;2.87;;
15151;SDS011;7676;50.900;6.234;2022-10-16T21:59:37;4.40;;;4.00;;
15151;SDS011;7676;50.900;6.234;2022-10-16T22:04:39;4.10;;;3.60;;
15151;SDS011;7676;50.900;6.234;2022-10-16T22:09:41;7.57;;;3.20;;
15151;SDS011;7676;50.900;6.234;2022-10-16T22:14:44;6.17;;;5.00;;
15151;SDS011;7676;50.900;6.234;2022-10-16T22:19:47;5.43;;;4.53;;
15151;SDS011;7676;50.900;6.234;2022-10-16T22:24:49;3.90;;;3.57;;
15151;SDS011;7676;50.900;6.234;2022-10-16T22:29:51;4.47;;;4.07;;
15151;SDS011;7676;50.900;6.234;2022-10-16T22:34:54;4.73;;;4.00;;
15151;SDS011;7676;50.900;6.234;2022-10-16T22:39:56;5.40;;;3.97;;
15151;SDS011;7676;50.900;6.234;2022-10-16T22:45:02;5.27;;;4.27;;
15151;SDS011;7676;50.900;6.234;2022-10-16T22:50:04;5.50;;;4.10;;
15151;SDS011;7676;50.900;6.234;2022-10-16T22:55:07;4.67;;;4.10;;
15151;SDS011;7676;50.900;6.234;2022-10-16T23:00:11;6.23;;;5.63;;
15151;SDS011;7676;50.900;6.234;2022-10-16T23:05:16;8.37;;;6.77;;
15151;SDS011;7676;50.900;6.234;2022-10-16T23:10:18;6.67;;;5.60;;
15151;SDS011;7676;50.900;6.234;2022-10-16T23:15:23;5.63;;;4.17;;
15151;SDS011;7676;50.900;6.234;2022-10-16T23:20:25;6.70;;;4.27;;
15151;SDS011;7676;50.900;6.234;2022-10-16T23:25:27;5.03;;;4.53;;
15151;SDS011;7676;50.900;6.234;2022-10-16T23:30:30;5.10;;;4.57;;
15151;SDS011;7676;50.900;6.234;2022-10-16T23:35:32;5.50;;;4.57;;
15151;SDS011;7676;50.900;6.234;2022-10-16T23:40:35;5.80;;;5.07;;
15151;SDS011;7676;50.900;6.234;2022-10-16T23:45:37;5.03;;;4.40;;
15151;SDS011;7676;50.900;6.234;2022-10-16T23:50:39;5.73;;;4.77;;
15151;SDS011;7676;50.900;6.234;2022-10-16T23:55:42;5.47;;;4.73;;
